CYSF

Details ICAO CYSF (YSF)
Name Stony Rapids
Region Canada
Timezone America/Regina (UTC-6.0)
Plans Departing 10
Arriving 7
Stats Elevation 805 ft / 245 m (AMSL)
Location 59.250340° -105.841339°
Runways 1
Magnetic Variation 10.154° E
Sunrise 2017-12-14 15:54:21 UTC / 2017-12-14 09:54:21 Local
Sunset 2017-12-14 22:04:49 UTC / 2017-12-14 16:04:49 Local
Advertisement - Login to hide

Runways

ID Width Length Bearing (true) Bearing (mag) Surface Threshold Offset Overrun Length
06 98 ft / 30 m 5,055 ft / 1,541 m 253.01° 242.86° Asphalt 0 ft / 0 m 0 ft / 0 m
24 98 ft / 30 m 5,055 ft / 1,541 m 72.99° 62.84° Asphalt 0 ft / 0 m 0 ft / 0 m

Map

Weather


0- 5 10 15 20 25 30 35+ Temperature / ° C

Clouds and Precipitation
Forecast for 2017-12-14 12:00 UTC. Updated an hour ago

Ground ~20,000 ft ~40,000 ft Winds

METAR

CYSF 141018Z AUTO 32004KT 290V360 9SM -SN OVC015 M12/M14 A3019 RMK SLP248

TAF

TAF CYSF 140538Z 1406/1418 32005KT P6SM -SN OVC025 TEMPO 1406/1412 2SM -SN -FZDZ BR SCT007 OVC015 FM141200 32005KT P6SM -SN OVC025 TEMPO 1412/1418 5SM -SN BR OVC015 BECMG 1413/1415 06005KT RMK FCST BASED ON AUTO OBS. NXT FCST BY 141200Z
Warning: Do not use this data for real-world aviation or navigation. No guarantee of current accuracy is given.